createdAt,value
2019-05-02T00:00:57.858Z,11.90
2019-05-02T00:03:26.957Z,11.80
2019-05-02T00:05:55.576Z,11.80
2019-05-02T00:08:24.508Z,11.70
2019-05-02T00:10:53.530Z,11.70
2019-05-02T00:13:22.410Z,11.60
2019-05-02T00:15:51.673Z,11.60
2019-05-02T00:18:20.669Z,11.60
2019-05-02T00:20:49.231Z,11.60
2019-05-02T00:23:18.117Z,11.50
2019-05-02T00:25:47.409Z,11.50
2019-05-02T00:28:16.859Z,11.40
2019-05-02T00:30:45.654Z,11.40
2019-05-02T00:33:14.127Z,11.40
2019-05-02T00:35:46.042Z,11.40
2019-05-02T00:38:13.029Z,11.50
2019-05-02T00:40:41.601Z,11.50
2019-05-02T00:43:10.130Z,11.40
2019-05-02T00:45:38.673Z,11.30
2019-05-02T00:48:19.333Z,11.30
2019-05-02T00:50:50.980Z,11.30
2019-05-02T00:53:18.108Z,11.30
2019-05-02T00:55:46.595Z,11.30
2019-05-02T00:58:15.129Z,11.20
2019-05-02T01:00:48.594Z,11.10
2019-05-02T01:03:17.968Z,11.10
2019-05-02T01:05:46.530Z,11.00
2019-05-02T01:08:15.024Z,11.00
2019-05-02T01:10:43.516Z,11.00
2019-05-02T01:13:14.753Z,11.00
2019-05-02T01:15:44.135Z,11.10
2019-05-02T01:18:12.407Z,10.90
2019-05-02T01:20:40.976Z,10.80
2019-05-02T01:23:09.435Z,10.80
2019-05-02T01:25:37.929Z,10.80
2019-05-02T01:28:12.522Z,10.80
2019-05-02T01:30:42.302Z,10.70
2019-05-02T01:33:11.812Z,10.70
2019-05-02T01:35:41.936Z,10.60
2019-05-02T01:38:20.607Z,10.60
2019-05-02T01:40:53.163Z,10.50
2019-05-02T01:43:24.187Z,10.50
2019-05-02T01:45:53.588Z,10.20
2019-05-02T01:48:22.879Z,10.40
2019-05-02T01:50:51.410Z,10.50
2019-05-02T01:53:19.975Z,10.20
2019-05-02T01:55:52.102Z,10.20
2019-05-02T01:58:20.755Z,10.10
2019-05-02T02:00:48.897Z,10.00
2019-05-02T02:03:17.447Z,10.00
2019-05-02T02:05:45.905Z,10.00
2019-05-02T02:08:14.470Z,10.00
2019-05-02T02:10:43.903Z,9.90
2019-05-02T02:13:12.632Z,9.90
2019-05-02T02:15:41.342Z,9.90
2019-05-02T02:18:10.057Z,9.80
2019-05-02T02:20:40.216Z,9.80
2019-05-02T02:23:14.211Z,9.90
2019-05-02T02:25:42.155Z,9.80
2019-05-02T02:28:10.719Z,9.80
2019-05-02T02:30:39.255Z,9.80
2019-05-02T02:33:09.475Z,9.80
2019-05-02T02:35:49.823Z,9.80
2019-05-02T02:38:08.448Z,9.80
2019-05-02T02:40:37.042Z,9.70
2019-05-02T02:43:30.076Z,9.60
2019-05-02T02:45:45.496Z,9.80
2019-05-02T02:48:14.109Z,9.70
2019-05-02T02:50:44.902Z,9.50
2019-05-02T02:53:18.099Z,9.50
2019-05-02T02:55:42.942Z,9.50
2019-05-02T02:58:11.497Z,9.50
2019-05-02T03:00:41.573Z,9.60
2019-05-02T03:03:10.179Z,9.60
2019-05-02T03:05:38.655Z,9.50
2019-05-02T03:08:07.446Z,9.40
2019-05-02T03:10:40.003Z,9.50
2019-05-02T03:13:25.876Z,9.40
2019-05-02T03:16:12.619Z,9.40
2019-05-02T03:18:43.296Z,9.30
2019-05-02T03:21:13.513Z,9.30
2019-05-02T03:23:41.687Z,9.30
2019-05-02T03:26:15.231Z,9.30
2019-05-02T03:28:40.730Z,9.20
2019-05-02T03:31:24.354Z,9.30
2019-05-02T03:33:53.794Z,9.20
2019-05-02T03:36:25.830Z,9.20
2019-05-02T03:38:41.644Z,8.90
2019-05-02T03:41:13.484Z,9.10
2019-05-02T03:43:40.814Z,9.10
2019-05-02T03:46:13.709Z,8.90
2019-05-02T03:48:39.892Z,8.80
2019-05-02T03:51:19.256Z,9.00
2019-05-02T03:53:39.134Z,9.00
2019-05-02T03:56:12.064Z,8.80
2019-05-02T03:58:38.217Z,8.80
2019-05-02T04:01:06.750Z,8.80
2019-05-02T04:03:40.798Z,8.80
2019-05-02T04:06:06.092Z,9.00
2019-05-02T04:08:35.297Z,9.00
2019-05-02T04:11:21.733Z,8.90
2019-05-02T04:13:51.494Z,8.90
2019-05-02T04:16:20.119Z,9.20
2019-05-02T04:18:55.091Z,9.10
2019-05-02T04:21:24.342Z,9.10
2019-05-02T04:23:50.110Z,9.20
2019-05-02T04:26:18.736Z,9.30
2019-05-02T04:28:51.681Z,9.50
2019-05-02T04:31:17.399Z,9.20
2019-05-02T04:33:45.940Z,9.50
2019-05-02T04:36:17.633Z,9.60
2019-05-02T04:38:48.700Z,9.60
2019-05-02T04:41:21.347Z,9.80
2019-05-02T04:43:51.491Z,9.70
2019-05-02T04:46:22.158Z,9.60
2019-05-02T04:48:49.876Z,9.90
2019-05-02T04:51:17.537Z,10.00
2019-05-02T04:53:49.547Z,10.10
2019-05-02T04:56:18.515Z,10.20
2019-05-02T04:58:49.008Z,10.10
2019-05-02T05:01:16.680Z,10.40
2019-05-02T05:03:51.253Z,10.50
2019-05-02T05:06:15.546Z,10.70
2019-05-02T05:08:44.040Z,10.80
2019-05-02T05:11:14.033Z,10.70
2019-05-02T05:13:42.795Z,10.90
2019-05-02T05:16:15.487Z,11.20
2019-05-02T05:18:43.907Z,11.30
2019-05-02T05:21:11.674Z,11.30
2019-05-02T05:23:59.702Z,11.40
2019-05-02T05:26:27.533Z,11.40
2019-05-02T05:28:57.943Z,11.90
2019-05-02T05:31:28.936Z,11.80
2019-05-02T05:33:57.886Z,11.60
2019-05-02T05:36:32.633Z,11.40
2019-05-02T05:38:58.206Z,11.20
2019-05-02T05:41:27.817Z,11.40
2019-05-02T05:43:57.358Z,11.40
2019-05-02T05:46:27.965Z,11.40
2019-05-02T05:48:58.348Z,11.20
2019-05-02T05:51:27.748Z,11.10
2019-05-02T05:53:59.705Z,11.20
2019-05-02T05:56:27.952Z,11.20
2019-05-02T05:58:58.854Z,11.40
2019-05-02T06:01:34.037Z,11.30
2019-05-02T06:03:58.093Z,11.20
2019-05-02T06:06:27.386Z,11.30
2019-05-02T06:08:56.135Z,11.50
2019-05-02T06:11:24.665Z,11.30
2019-05-02T06:13:53.171Z,11.20
2019-05-02T06:16:21.703Z,11.20
2019-05-02T06:18:50.195Z,11.40
2019-05-02T06:21:18.659Z,11.50
2019-05-02T06:23:47.302Z,11.50
2019-05-02T06:26:15.966Z,11.60
2019-05-02T06:28:44.610Z,11.70
2019-05-02T06:31:13.140Z,11.60
2019-05-02T06:33:41.831Z,12.00
2019-05-02T06:36:10.303Z,12.00
2019-05-02T06:38:38.873Z,12.00
2019-05-02T06:41:07.492Z,11.70
2019-05-02T06:43:36.037Z,11.60
2019-05-02T06:46:15.471Z,11.60
2019-05-02T06:48:35.159Z,11.80
2019-05-02T06:51:03.653Z,11.80
2019-05-02T06:53:34.988Z,11.90
2019-05-02T06:56:02.390Z,11.70
2019-05-02T06:58:31.004Z,11.80
2019-05-02T07:00:59.548Z,11.60
2019-05-02T07:03:28.102Z,11.70
2019-05-02T07:05:58.626Z,11.60
2019-05-02T07:08:26.874Z,11.60
2019-05-02T07:10:55.907Z,11.70
2019-05-02T07:13:25.734Z,11.60
2019-05-02T07:15:55.935Z,11.50
2019-05-02T07:18:28.734Z,11.80
2019-05-02T07:20:57.214Z,11.70
2019-05-02T07:23:25.696Z,11.90
2019-05-02T07:25:54.225Z,12.10
2019-05-02T07:28:24.193Z,12.00
2019-05-02T07:30:54.574Z,12.00
2019-05-02T07:33:23.014Z,12.20
2019-05-02T07:35:55.262Z,12.30
2019-05-02T07:38:25.601Z,12.50
2019-05-02T07:40:52.957Z,12.40
2019-05-02T07:43:22.416Z,12.60
2019-05-02T07:45:51.092Z,12.60
2019-05-02T07:48:19.691Z,12.60
2019-05-02T07:50:48.369Z,12.80
2019-05-02T07:53:16.963Z,13.50
2019-05-02T07:55:45.450Z,13.80
2019-05-02T07:58:13.994Z,14.00
2019-05-02T08:00:42.555Z,14.10
2019-05-02T08:03:11.103Z,13.80
2019-05-02T08:05:39.710Z,13.90
2019-05-02T08:08:08.287Z,13.80
2019-05-02T08:10:36.836Z,14.50
2019-05-02T08:13:05.387Z,15.00
2019-05-02T08:15:33.949Z,14.80
2019-05-02T08:18:02.586Z,15.50
2019-05-02T08:20:31.133Z,16.60
2019-05-02T08:22:59.785Z,18.20
2019-05-02T08:25:28.319Z,18.50
2019-05-02T08:27:58.449Z,17.70
2019-05-02T08:30:28.773Z,16.40
2019-05-02T08:32:57.274Z,16.20
2019-05-02T08:35:28.002Z,16.50
2019-05-02T08:37:56.337Z,17.30
2019-05-02T08:40:24.971Z,17.70
2019-05-02T08:42:53.474Z,16.80
2019-05-02T08:45:22.067Z,16.80
2019-05-02T08:47:50.555Z,17.00
2019-05-02T08:50:19.333Z,16.90
2019-05-02T08:52:48.223Z,16.60
2019-05-02T08:55:16.767Z,16.70
2019-05-02T08:57:45.334Z,17.40
2019-05-02T09:00:14.202Z,17.20
2019-05-02T09:02:42.781Z,18.00
2019-05-02T09:05:11.486Z,19.60
2019-05-02T09:07:42.664Z,19.80
2019-05-02T09:10:11.243Z,18.20
2019-05-02T09:12:42.269Z,18.30
2019-05-02T09:15:11.818Z,18.50
2019-05-02T09:17:46.467Z,20.00
2019-05-02T09:20:18.668Z,20.00
2019-05-02T09:22:41.858Z,20.10
2019-05-02T09:25:12.602Z,20.30
2019-05-02T09:27:42.016Z,21.40
2019-05-02T09:30:17.181Z,22.80
2019-05-02T09:32:43.106Z,23.50
2019-05-02T09:35:11.849Z,22.60
2019-05-02T09:37:41.916Z,21.70
2019-05-02T09:40:12.548Z,21.10
2019-05-02T09:42:42.988Z,20.70
2019-05-02T09:45:16.070Z,20.50
2019-05-02T09:47:55.825Z,19.60
2019-05-02T09:50:20.504Z,22.20
2019-05-02T09:52:47.799Z,23.10
2019-05-02T09:55:17.749Z,21.40
2019-05-02T09:57:46.431Z,20.30
2019-05-02T10:00:32.272Z,22.90
2019-05-02T10:02:58.805Z,22.60
2019-05-02T10:05:27.431Z,24.30
2019-05-02T10:07:57.402Z,24.30
2019-05-02T10:10:26.551Z,22.30
2019-05-02T10:12:55.087Z,22.70
2019-05-02T10:15:23.724Z,24.80
2019-05-02T10:17:52.338Z,23.70
2019-05-02T10:20:23.576Z,23.60
2019-05-02T10:22:53.035Z,24.60
2019-05-02T10:25:23.174Z,23.80
2019-05-02T10:27:52.359Z,24.70
2019-05-02T10:30:23.074Z,25.90
2019-05-02T10:32:56.143Z,25.70
2019-05-02T10:35:28.175Z,26.70
2019-05-02T10:37:53.785Z,24.80
2019-05-02T10:40:22.654Z,23.90
2019-05-02T10:42:52.203Z,23.70
2019-05-02T10:45:22.542Z,24.70
2019-05-02T10:47:52.720Z,25.20
2019-05-02T10:50:25.722Z,24.40
2019-05-02T10:52:54.293Z,25.50
2019-05-02T10:55:24.283Z,23.60
2019-05-02T10:57:52.912Z,23.90
2019-05-02T11:00:23.885Z,22.80
2019-05-02T11:03:11.966Z,22.80
2019-05-02T11:05:42.083Z,22.60
2019-05-02T11:08:11.994Z,23.30
2019-05-02T11:10:42.266Z,21.90
2019-05-02T11:13:18.058Z,22.10
2019-05-02T11:15:52.533Z,21.90
2019-05-02T11:18:38.821Z,23.00
2019-05-02T11:20:52.922Z,22.20
2019-05-02T11:23:22.083Z,23.70
2019-05-02T11:25:52.515Z,25.60
2019-05-02T11:28:21.990Z,24.80
2019-05-02T11:30:52.449Z,25.50
2019-05-02T11:33:22.849Z,25.70
2019-05-02T11:35:53.476Z,26.30
2019-05-02T11:38:48.020Z,26.60
2019-05-02T11:40:52.153Z,25.50
2019-05-02T11:43:22.349Z,24.60
2019-05-02T11:45:54.166Z,26.10
2019-05-02T11:48:22.633Z,25.30
2019-05-02T11:50:52.323Z,23.90
2019-05-02T11:53:28.861Z,23.70
2019-05-02T11:55:53.024Z,23.10
2019-05-02T11:58:22.975Z,24.00
2019-05-02T12:00:52.227Z,23.40
2019-05-02T12:03:22.650Z,22.30
2019-05-02T12:05:52.443Z,21.60
2019-05-02T12:08:22.640Z,21.40
2019-05-02T12:10:51.926Z,22.30
2019-05-02T12:13:22.530Z,23.90
2019-05-02T12:15:51.937Z,25.10
2019-05-02T12:18:23.201Z,24.80
2019-05-02T12:20:52.013Z,24.90
2019-05-02T12:23:22.675Z,24.60
2019-05-02T12:25:51.981Z,24.00
2019-05-02T12:28:22.745Z,22.90
2019-05-02T12:30:51.873Z,21.10
2019-05-02T12:33:22.360Z,21.40
2019-05-02T12:35:52.438Z,21.90
2019-05-02T12:38:22.873Z,21.40
2019-05-02T12:40:52.039Z,20.20
2019-05-02T12:43:22.765Z,20.10
2019-05-02T12:45:52.786Z,21.30
2019-05-02T12:48:22.022Z,21.40
2019-05-02T12:50:52.596Z,21.30
2019-05-02T12:53:21.896Z,21.00
2019-05-02T12:55:52.536Z,20.90
2019-05-02T12:58:21.980Z,21.00
2019-05-02T13:00:52.863Z,21.40
2019-05-02T13:03:40.200Z,21.80
2019-05-02T13:06:08.728Z,21.10
2019-05-02T13:08:49.350Z,19.80
2019-05-02T13:11:24.856Z,19.40
2019-05-02T13:13:53.582Z,19.30
2019-05-02T13:16:22.680Z,18.70
2019-05-02T13:18:51.910Z,18.40
2019-05-02T13:21:25.027Z,19.10
2019-05-02T13:23:57.606Z,19.40
2019-05-02T13:26:27.299Z,18.60
2019-05-02T13:28:55.975Z,19.20
2019-05-02T13:31:29.026Z,19.10
2019-05-02T13:34:16.829Z,18.80
2019-05-02T13:36:53.633Z,18.90
2019-05-02T13:39:23.980Z,19.00
2019-05-02T13:41:52.675Z,19.00
2019-05-02T13:44:22.994Z,19.20
2019-05-02T13:46:53.476Z,19.40
2019-05-02T13:49:22.053Z,19.00
2019-05-02T13:51:52.140Z,19.30
2019-05-02T13:54:22.163Z,19.60
2019-05-02T13:56:52.829Z,19.80
2019-05-02T13:59:22.245Z,20.70
2019-05-02T14:01:52.571Z,20.50
2019-05-02T14:04:23.300Z,20.80
2019-05-02T14:06:52.864Z,21.30
2019-05-02T14:09:29.195Z,20.80
2019-05-02T14:12:11.850Z,20.00
2019-05-02T14:14:42.372Z,19.80
2019-05-02T14:17:11.726Z,20.00
2019-05-02T14:19:42.092Z,19.40
2019-05-02T14:22:12.747Z,19.60
2019-05-02T14:24:42.154Z,19.80
2019-05-02T14:27:13.017Z,19.20
2019-05-02T14:29:42.383Z,19.00
2019-05-02T14:32:22.883Z,19.00
2019-05-02T14:34:48.742Z,19.00
2019-05-02T14:37:17.360Z,19.20
2019-05-02T14:39:47.505Z,19.00
2019-05-02T14:42:24.454Z,19.30
2019-05-02T14:45:04.291Z,19.10
2019-05-02T14:47:19.503Z,19.60
2019-05-02T14:49:46.726Z,19.70
2019-05-02T14:52:15.271Z,20.00
2019-05-02T14:54:47.719Z,19.80
2019-05-02T14:57:25.411Z,19.80
2019-05-02T14:59:50.203Z,19.80
2019-05-02T15:02:19.707Z,19.80
2019-05-02T15:04:48.999Z,19.80
2019-05-02T15:07:22.183Z,19.10
2019-05-02T15:09:47.992Z,18.70
2019-05-02T15:12:19.005Z,18.80
2019-05-02T15:14:49.242Z,18.70
2019-05-02T15:17:17.023Z,18.90
2019-05-02T15:19:45.601Z,18.50
2019-05-02T15:22:14.137Z,18.60
2019-05-02T15:24:42.741Z,18.60
2019-05-02T15:27:16.666Z,18.50
2019-05-02T15:29:42.125Z,18.40
2019-05-02T15:32:15.390Z,18.10
2019-05-02T15:34:57.269Z,18.40
2019-05-02T15:37:26.209Z,18.60
2019-05-02T15:42:25.880Z,18.50
2019-05-02T15:44:57.096Z,18.80
2019-05-02T15:47:24.712Z,18.70
2019-05-02T15:49:53.255Z,18.60
2019-05-02T15:52:24.161Z,18.50
2019-05-02T15:54:59.814Z,18.50
2019-05-02T15:57:24.927Z,18.40
2019-05-02T15:59:53.648Z,18.50
2019-05-02T16:02:26.548Z,18.70
2019-05-02T16:04:56.921Z,18.60
2019-05-02T16:07:24.423Z,18.40
2019-05-02T16:09:57.253Z,18.40
2019-05-02T16:12:27.128Z,18.30
2019-05-02T16:14:53.447Z,18.20
2019-05-02T16:17:25.629Z,18.60
2019-05-02T16:19:58.792Z,18.60
2019-05-02T16:22:25.691Z,18.30
2019-05-02T16:24:56.505Z,18.50
2019-05-02T16:27:42.158Z,18.20
2019-05-02T16:30:13.345Z,18.20
2019-05-02T16:32:44.300Z,18.10
2019-05-02T16:35:17.393Z,18.20
2019-05-02T16:37:46.794Z,18.20
2019-05-02T16:40:14.988Z,18.00
2019-05-02T16:42:43.589Z,17.80
2019-05-02T16:45:14.004Z,17.50
2019-05-02T16:47:42.495Z,17.40
2019-05-02T16:50:12.349Z,17.20
2019-05-02T16:52:43.711Z,17.30
2019-05-02T16:55:13.600Z,17.20
2019-05-02T16:57:42.395Z,17.40
2019-05-02T17:00:15.558Z,17.40
2019-05-02T17:02:46.390Z,17.50
2019-05-02T17:05:14.619Z,17.70
2019-05-02T17:07:47.576Z,17.60
2019-05-02T17:10:35.054Z,17.60
2019-05-02T17:13:03.217Z,17.50
2019-05-02T17:15:35.272Z,17.50
2019-05-02T17:18:05.103Z,17.40
2019-05-02T17:20:34.121Z,17.40
2019-05-02T17:23:07.235Z,17.20
2019-05-02T17:25:33.009Z,17.00
2019-05-02T17:28:06.972Z,16.90
2019-05-02T17:30:38.660Z,16.70
2019-05-02T17:33:02.241Z,16.60
2019-05-02T17:35:32.588Z,16.50
2019-05-02T17:38:02.569Z,16.50
2019-05-02T17:40:31.291Z,16.40
2019-05-02T17:43:02.924Z,16.30
2019-05-02T17:45:33.365Z,16.20
2019-05-02T17:48:00.407Z,16.10
2019-05-02T17:50:32.819Z,16.10
2019-05-02T17:53:03.023Z,16.10
2019-05-02T17:55:34.553Z,16.00
2019-05-02T17:58:04.539Z,16.00
2019-05-02T18:00:33.854Z,16.00
2019-05-02T18:03:02.576Z,16.00
2019-05-02T18:05:35.493Z,15.90
2019-05-02T18:08:01.319Z,15.90
2019-05-02T18:10:29.900Z,15.80
2019-05-02T18:13:00.054Z,15.70
2019-05-02T18:15:29.949Z,15.80
2019-05-02T18:17:59.830Z,15.80
2019-05-02T18:20:29.175Z,15.80
2019-05-02T18:22:57.735Z,15.60
2019-05-02T18:25:26.332Z,15.60
2019-05-02T18:27:54.816Z,15.60
2019-05-02T18:30:26.871Z,15.40
2019-05-02T18:32:57.829Z,15.50
2019-05-02T18:35:23.937Z,15.30
2019-05-02T18:37:52.599Z,15.30
2019-05-02T18:40:27.694Z,15.10
2019-05-02T18:42:52.062Z,15.10
2019-05-02T18:45:28.568Z,15.10
2019-05-02T18:48:02.484Z,15.00
2019-05-02T18:50:44.532Z,14.90
2019-05-02T18:53:10.024Z,14.90
2019-05-02T18:55:39.084Z,14.80
2019-05-02T18:58:08.525Z,14.70
2019-05-02T19:00:39.475Z,14.60
2019-05-02T19:03:13.221Z,14.40
2019-05-02T19:05:39.689Z,14.50
2019-05-02T19:08:08.298Z,14.40
2019-05-02T19:10:37.015Z,14.50
2019-05-02T19:13:07.252Z,14.40
2019-05-02T19:15:39.703Z,14.50
2019-05-02T19:18:10.636Z,14.40
2019-05-02T19:20:44.535Z,14.40
2019-05-02T19:23:09.948Z,14.20
2019-05-02T19:25:38.503Z,14.10
2019-05-02T19:28:12.207Z,14.00
2019-05-02T19:30:42.428Z,14.00
2019-05-02T19:33:12.147Z,13.90
2019-05-02T19:35:43.169Z,13.80
2019-05-02T19:38:11.825Z,13.80
2019-05-02T19:40:42.619Z,13.80
2019-05-02T19:43:14.558Z,13.80
2019-05-02T19:45:41.096Z,13.70
2019-05-02T19:48:09.707Z,13.70
2019-05-02T19:50:43.434Z,13.80
2019-05-02T19:53:14.889Z,13.90
2019-05-02T19:55:39.694Z,13.80
2019-05-02T19:58:08.325Z,13.90
2019-05-02T20:00:42.236Z,13.90
2019-05-02T20:03:07.318Z,13.70
2019-05-02T20:05:35.936Z,13.70
2019-05-02T20:08:04.663Z,13.50
2019-05-02T20:10:33.330Z,13.30
2019-05-02T20:13:03.176Z,13.20
2019-05-02T20:15:33.468Z,13.00
2019-05-02T20:18:04.811Z,12.80
2019-05-02T20:20:51.961Z,12.70
2019-05-02T20:23:28.581Z,12.60
2019-05-02T20:25:52.227Z,12.60
2019-05-02T20:28:21.804Z,12.40
2019-05-02T20:30:52.489Z,12.40
2019-05-02T20:33:22.224Z,12.30
2019-05-02T20:35:52.873Z,12.30
2019-05-02T20:38:21.910Z,12.40
2019-05-02T20:40:52.264Z,12.20
2019-05-02T20:43:22.752Z,12.20
2019-05-02T20:45:52.725Z,12.20
2019-05-02T20:48:22.688Z,12.20
2019-05-02T20:50:52.045Z,12.40
2019-05-02T20:53:30.751Z,12.40
2019-05-02T20:55:52.395Z,12.60
2019-05-02T20:58:22.011Z,12.40
2019-05-02T21:01:05.052Z,12.30
2019-05-02T21:03:21.110Z,12.30
2019-05-02T21:05:52.152Z,12.40
2019-05-02T21:08:25.135Z,12.20
2019-05-02T21:11:01.778Z,12.10
2019-05-02T21:13:32.601Z,12.10
2019-05-02T21:16:01.816Z,12.20
2019-05-02T21:18:32.655Z,12.20
2019-05-02T21:21:00.944Z,12.30
2019-05-02T21:23:43.414Z,12.50
2019-05-02T21:26:01.760Z,12.30
2019-05-02T21:28:31.993Z,12.30
2019-05-02T21:31:00.368Z,12.40
2019-05-02T21:33:35.260Z,12.50
2019-05-02T21:36:03.948Z,12.40
2019-05-02T21:38:32.577Z,12.40
2019-05-02T21:41:01.312Z,12.40
2019-05-02T21:43:31.626Z,12.40
2019-05-02T21:46:02.362Z,12.40
2019-05-02T21:48:32.716Z,12.40
2019-05-02T21:51:17.861Z,12.40
2019-05-02T21:53:56.033Z,12.40
2019-05-02T21:56:22.893Z,12.50
2019-05-02T21:59:12.243Z,12.80
2019-05-02T22:01:45.633Z,12.70
2019-05-02T22:04:14.373Z,12.70
2019-05-02T22:06:43.308Z,12.50
2019-05-02T22:09:12.462Z,12.60
2019-05-02T22:11:42.873Z,12.60
2019-05-02T22:14:13.408Z,12.60
2019-05-02T22:16:42.244Z,12.40
2019-05-02T22:19:11.012Z,12.60
2019-05-02T22:21:39.653Z,12.60
2019-05-02T22:24:11.651Z,12.70
2019-05-02T22:26:38.458Z,12.70
2019-05-02T22:29:07.204Z,12.70
2019-05-02T22:31:35.812Z,12.80
2019-05-02T22:34:05.732Z,12.70
2019-05-02T22:36:34.413Z,12.70
2019-05-02T22:39:10.308Z,12.50
2019-05-02T22:41:38.887Z,12.60
2019-05-02T22:44:07.623Z,12.50
2019-05-02T22:46:43.498Z,12.50
2019-05-02T22:49:14.605Z,12.40
2019-05-02T22:51:44.007Z,12.40
2019-05-02T22:54:24.165Z,12.30
2019-05-02T22:56:44.371Z,12.40
2019-05-02T22:59:12.943Z,12.40
2019-05-02T23:01:42.172Z,12.30
2019-05-02T23:04:12.774Z,12.30
2019-05-02T23:06:43.831Z,12.40
2019-05-02T23:09:12.658Z,12.40
2019-05-02T23:11:42.622Z,12.30
2019-05-02T23:14:11.491Z,12.30
2019-05-02T23:16:42.309Z,12.20
2019-05-02T23:19:12.269Z,12.20
2019-05-02T23:21:42.243Z,12.10
2019-05-02T23:24:14.573Z,12.10
2019-05-02T23:26:51.828Z,12.10
2019-05-02T23:29:22.442Z,12.20
2019-05-02T23:31:51.766Z,12.20
2019-05-02T23:34:23.286Z,12.20
2019-05-02T23:36:52.211Z,12.30
2019-05-02T23:39:20.984Z,12.30
2019-05-02T23:41:49.579Z,12.20
2019-05-02T23:44:18.144Z,12.30
2019-05-02T23:46:46.740Z,12.30
2019-05-02T23:49:15.375Z,12.30
2019-05-02T23:51:43.938Z,12.10
2019-05-02T23:54:13.053Z,12.20
2019-05-02T23:56:43.048Z,12.10
2019-05-02T23:59:12.099Z,12.10
